Time;durP1;ratioP1;P1;durP2;ratioP2;P2;SDS_P1;SDS_P2;PMS_P1;PMS_P2;Temp;Humidity;BMP_temperature;BMP_pressure;BME280_temperature;BME280_humidity;BME280_pressure;Samples;Min_cycle;Max_cycle;Signal;HPM_P1;HPM_P2
2024/01/04 00:00:17;;;;;;;450.97;418.13;;;5.50;99.90;;;;;;5081582;28;20072;-75
2024/01/04 00:02:46;;;;;;;297.77;279.77;;;5.50;99.90;;;;;;5060201;28;20802;-75
2024/01/04 00:05:11;;;;;;;434.55;403.08;;;5.50;99.90;;;;;;5088661;28;20362;-75
2024/01/04 00:07:38;;;;;;;385.80;360.73;;;5.50;99.90;;;;;;5080713;28;20090;-75
2024/01/04 00:10:04;;;;;;;422.65;392.05;;;5.50;99.90;;;;;;5072136;28;20071;-75
2024/01/04 00:12:30;;;;;;;396.08;368.58;;;5.40;99.90;;;;;;5068135;28;20119;-74
2024/01/04 00:14:55;;;;;;;410.70;382.03;;;5.40;99.90;;;;;;5073541;28;20458;-75
2024/01/04 00:17:21;;;;;;;371.43;347.37;;;5.40;99.90;;;;;;5071593;28;20044;-75
2024/01/04 00:19:47;;;;;;;503.83;466.27;;;5.40;99.90;;;;;;5052504;28;20129;-74
2024/01/04 00:22:13;;;;;;;463.77;431.30;;;5.40;99.90;;;;;;5080492;28;20040;-75
2024/01/04 00:24:38;;;;;;;353.10;330.53;;;5.40;99.90;;;;;;5052873;28;20064;-75
2024/01/04 00:27:04;;;;;;;277.50;260.67;;;5.30;99.90;;;;;;5079215;28;20509;-75
2024/01/04 00:29:30;;;;;;;375.70;350.83;;;5.30;99.90;;;;;;5082505;28;20064;-75
2024/01/04 00:31:56;;;;;;;481.30;445.93;;;5.30;99.90;;;;;;5060093;28;20025;-75
2024/01/04 00:34:21;;;;;;;332.13;311.97;;;5.30;99.90;;;;;;5068128;28;20040;-75
2024/01/04 00:36:47;;;;;;;553.00;509.20;;;5.30;99.90;;;;;;5086171;28;20040;-75
2024/01/04 00:39:13;;;;;;;394.00;367.37;;;5.30;99.90;;;;;;5079234;28;20065;-75
2024/01/04 00:41:38;;;;;;;464.07;431.87;;;5.30;99.90;;;;;;5078178;28;20402;-75
2024/01/04 00:44:04;;;;;;;416.47;387.60;;;5.30;99.90;;;;;;5055779;28;20477;-75
2024/01/04 00:46:30;;;;;;;315.43;295.27;;;5.30;99.90;;;;;;5053320;28;20044;-75
2024/01/04 00:48:55;;;;;;;429.73;399.60;;;5.30;99.90;;;;;;5081881;28;20548;-76
2024/01/04 00:51:21;;;;;;;372.87;348.03;;;5.30;99.90;;;;;;5084461;28;20296;-75
2024/01/04 00:53:47;;;;;;;435.50;404.90;;;5.20;99.90;;;;;;5059291;28;20032;-76
2024/01/04 00:56:13;;;;;;;483.67;447.57;;;5.20;99.90;;;;;;5071675;28;20150;-75
2024/01/04 00:58:39;;;;;;;391.17;364.52;;;5.20;99.90;;;;;;5063277;28;20050;-75
2024/01/04 01:01:05;;;;;;;364.07;338.50;;;5.20;99.90;;;;;;5078687;28;20119;-76
2024/01/04 01:03:30;;;;;;;413.17;383.40;;;5.20;99.90;;;;;;5072421;28;20111;-75
2024/01/04 01:05:56;;;;;;;392.27;364.63;;;5.20;99.90;;;;;;5076218;28;20387;-75
2024/01/04 01:08:22;;;;;;;403.67;375.05;;;5.20;99.90;;;;;;5049867;28;20080;-75
2024/01/04 01:10:48;;;;;;;333.87;312.53;;;5.10;99.90;;;;;;5057841;28;20067;-75
2024/01/04 01:13:20;;;;;;;398.00;367.97;;;5.10;99.90;;;;;;5062775;28;20032;-75
2024/01/04 01:15:46;;;;;;;315.67;295.63;;;5.10;99.90;;;;;;5049549;28;20119;-76
2024/01/04 01:18:12;;;;;;;342.92;320.50;;;5.10;99.90;;;;;;5075913;28;20124;-75
2024/01/04 01:20:38;;;;;;;358.00;334.30;;;5.10;99.90;;;;;;5071346;28;20115;-75
2024/01/04 01:23:03;;;;;;;410.80;380.13;;;5.10;99.90;;;;;;5082505;28;20483;-75
2024/01/04 01:25:29;;;;;;;396.57;368.80;;;5.10;99.90;;;;;;5064234;28;20055;-75
2024/01/04 01:27:55;;;;;;;259.90;243.73;;;5.10;99.90;;;;;;5060201;28;20123;-75
2024/01/04 01:30:20;;;;;;;394.60;365.50;;;5.10;99.90;;;;;;5078402;28;20058;-76
2024/01/04 01:32:46;;;;;;;362.77;338.40;;;5.10;99.90;;;;;;5071499;28;20111;-76
2024/01/04 01:35:13;;;;;;;390.13;362.13;;;5.10;99.90;;;;;;5078426;28;20047;-75
2024/01/04 01:37:39;;;;;;;323.70;302.58;;;5.00;99.90;;;;;;5061254;28;20089;-75
2024/01/04 01:40:06;;;;;;;483.20;446.07;;;5.00;99.90;;;;;;5080560;28;20044;-76
2024/01/04 01:42:32;;;;;;;255.45;240.85;;;5.00;99.90;;;;;;5078873;28;20125;-75
2024/01/04 01:45:00;;;;;;;373.50;348.47;;;5.00;99.90;;;;;;5052314;28;20040;-76
2024/01/04 01:47:27;;;;;;;330.73;310.08;;;5.00;99.90;;;;;;5079041;28;20044;-76
2024/01/04 01:49:54;;;;;;;334.58;312.00;;;5.00;99.90;;;;;;5075689;28;20041;-75
2024/01/04 01:52:21;;;;;;;358.10;335.52;;;5.00;99.90;;;;;;5069064;28;20043;-75
2024/01/04 01:54:49;;;;;;;350.67;326.85;;;5.00;99.90;;;;;;5051382;28;20483;-75
2024/01/04 01:57:16;;;;;;;301.27;282.55;;;4.90;99.90;;;;;;5070687;28;20776;-75
2024/01/04 01:59:44;;;;;;;423.73;393.33;;;4.90;99.90;;;;;;5085123;28;20063;-75
2024/01/04 02:02:10;;;;;;;444.05;411.75;;;4.90;99.90;;;;;;5066416;28;20047;-75
2024/01/04 02:04:36;;;;;;;273.63;256.80;;;4.90;99.90;;;;;;5078186;28;20068;-75
2024/01/04 02:07:02;;;;;;;356.20;332.80;;;4.90;99.90;;;;;;5063667;28;20090;-76
2024/01/04 02:09:28;;;;;;;325.03;304.67;;;4.90;99.90;;;;;;5066638;28;20069;-75
2024/01/04 02:12:05;;;;;;;323.37;301.87;;;4.80;99.90;;;;;;5072075;28;20040;-75
2024/01/04 02:14:31;;;;;;;387.80;360.52;;;4.80;99.90;;;;;;5057712;28;20043;-75
2024/01/04 02:16:57;;;;;;;394.98;368.67;;;4.80;99.90;;;;;;5074954;28;20139;-75
2024/01/04 02:19:24;;;;;;;292.97;274.20;;;4.80;99.90;;;;;;5075737;28;20170;-75
2024/01/04 02:21:50;;;;;;;250.48;235.85;;;4.80;99.90;;;;;;5072040;28;20458;-76
2024/01/04 02:24:15;;;;;;;413.30;380.30;;;4.80;99.90;;;;;;5059718;28;20083;-75
2024/01/04 02:26:41;;;;;;;277.10;260.43;;;4.80;99.90;;;;;;5071220;28;20048;-75
2024/01/04 02:29:06;;;;;;;418.50;389.23;;;4.80;99.90;;;;;;5082072;28;20051;-75
2024/01/04 02:31:32;;;;;;;247.10;232.13;;;4.80;99.90;;;;;;5054069;28;20527;-76
2024/01/04 02:33:58;;;;;;;385.00;358.40;;;4.80;99.90;;;;;;5083593;28;20051;-75
2024/01/04 02:36:25;;;;;;;283.73;266.03;;;4.70;99.90;;;;;;5064861;28;20036;-75
2024/01/04 02:38:51;;;;;;;267.80;252.13;;;4.70;99.90;;;;;;5072962;28;20418;-75
2024/01/04 02:41:16;;;;;;;346.50;322.97;;;4.70;99.90;;;;;;5059510;28;20162;-75
2024/01/04 02:43:42;;;;;;;210.13;198.07;;;4.70;99.90;;;;;;5075979;28;20493;-75
2024/01/04 02:46:08;;;;;;;213.10;200.80;;;4.70;99.90;;;;;;5058343;28;20113;-75
2024/01/04 02:48:33;;;;;;;324.20;303.23;;;4.70;99.90;;;;;;5075871;28;20114;-75
2024/01/04 02:50:59;;;;;;;217.77;204.50;;;4.70;99.90;;;;;;5072623;28;20064;-75
2024/01/04 02:53:25;;;;;;;259.87;244.73;;;4.70;99.90;;;;;;5063129;28;20032;-76
2024/01/04 02:55:50;;;;;;;178.47;168.80;;;4.70;99.90;;;;;;5053044;28;20685;-75
2024/01/04 02:58:17;;;;;;;307.10;287.27;;;4.70;99.90;;;;;;5084228;28;20040;-75
2024/01/04 03:00:43;;;;;;;160.75;151.90;;;4.70;99.90;;;;;;5075624;28;20052;-75
2024/01/04 03:03:08;;;;;;;312.57;292.13;;;4.70;99.90;;;;;;5060577;28;20041;-75
2024/01/04 03:05:34;;;;;;;304.57;282.90;;;4.70;99.90;;;;;;5081373;28;20040;-75
2024/01/04 03:08:00;;;;;;;297.77;274.50;;;4.70;99.90;;;;;;5080030;28;20036;-76
2024/01/04 03:10:26;;;;;;;102.53;97.07;;;4.70;99.90;;;;;;5054592;28;20098;-76
2024/01/04 03:12:51;;;;;;;207.73;193.20;;;4.70;99.90;;;;;;5051888;28;20032;-76
2024/01/04 03:15:17;;;;;;;112.93;107.10;;;4.60;99.90;;;;;;5063707;28;20546;-76
2024/01/04 03:17:43;;;;;;;164.43;155.43;;;4.60;99.90;;;;;;5063961;28;20035;-75
2024/01/04 03:20:09;;;;;;;81.63;77.33;;;4.60;99.90;;;;;;5065943;28;20036;-76
2024/01/04 03:22:34;;;;;;;146.80;139.10;;;4.60;99.90;;;;;;5057461;28;20105;-75
2024/01/04 03:25:00;;;;;;;106.47;100.80;;;4.60;99.90;;;;;;5075305;28;20079;-75
2024/01/04 03:27:26;;;;;;;162.40;153.50;;;4.50;99.90;;;;;;5072657;28;20040;-75
2024/01/04 03:29:54;;;;;;;152.73;144.23;;;4.50;99.90;;;;;;5067763;28;20045;-76
2024/01/04 03:32:20;;;;;;;158.35;149.95;;;4.50;99.90;;;;;;5054870;28;20393;-76
2024/01/04 03:34:45;;;;;;;117.23;111.03;;;4.40;99.90;;;;;;5078457;28;20051;-76
2024/01/04 03:37:11;;;;;;;146.63;138.70;;;4.40;99.90;;;;;;5089416;28;20043;-76
2024/01/04 03:39:37;;;;;;;105.67;100.07;;;4.40;99.90;;;;;;5065831;28;20040;-75
2024/01/04 03:42:03;;;;;;;137.13;129.70;;;4.30;99.90;;;;;;5078810;28;20036;-75
2024/01/04 03:44:28;;;;;;;99.93;94.67;;;4.20;99.90;;;;;;5057436;28;20051;-75
2024/01/04 03:46:54;;;;;;;177.50;167.73;;;4.20;99.90;;;;;;5060127;28;20300;-75
2024/01/04 03:49:20;;;;;;;110.30;104.53;;;4.20;99.90;;;;;;5079217;28;20119;-75
2024/01/04 03:51:45;;;;;;;112.90;107.07;;;4.10;99.90;;;;;;5076006;28;20393;-76
2024/01/04 03:54:11;;;;;;;120.67;114.37;;;4.10;99.90;;;;;;5071607;28;20117;-75
2024/01/04 03:56:38;;;;;;;74.73;70.83;;;4.00;99.90;;;;;;5080274;28;20405;-76
2024/01/04 03:59:03;;;;;;;114.93;108.88;;;4.00;99.90;;;;;;5070809;28;20036;-75
2024/01/04 04:01:29;;;;;;;73.20;69.43;;;4.00;99.90;;;;;;5073016;28;20047;-76
2024/01/04 04:03:55;;;;;;;87.33;82.70;;;4.00;99.90;;;;;;5058817;28;20036;-76
2024/01/04 04:06:20;;;;;;;106.33;100.53;;;4.00;99.90;;;;;;5053038;28;20044;-76
2024/01/04 04:08:46;;;;;;;96.40;91.47;;;4.00;99.90;;;;;;5066643;28;20036;-76
2024/01/04 04:11:19;;;;;;;140.23;133.00;;;4.00;99.90;;;;;;5086762;28;20039;-75
2024/01/04 04:13:45;;;;;;;155.35;146.98;;;4.00;99.90;;;;;;5084754;28;20115;-75
2024/01/04 04:16:10;;;;;;;159.63;150.27;;;4.10;99.90;;;;;;5080501;28;20484;-76
2024/01/04 04:18:36;;;;;;;131.70;124.83;;;4.10;99.90;;;;;;5079052;28;20424;-76
2024/01/04 04:21:02;;;;;;;97.63;92.90;;;4.10;99.90;;;;;;5077825;28;20082;-75
2024/01/04 04:23:28;;;;;;;168.37;158.30;;;4.10;99.90;;;;;;5050927;28;20063;-76
2024/01/04 04:25:53;;;;;;;158.90;149.83;;;4.10;99.90;;;;;;5078499;28;20066;-75
2024/01/04 04:28:19;;;;;;;174.00;163.57;;;4.10;99.90;;;;;;5073475;28;20127;-76
2024/01/04 04:30:45;;;;;;;78.83;75.03;;;4.10;99.90;;;;;;5077487;28;20102;-76
2024/01/04 04:33:10;;;;;;;104.43;98.97;;;4.10;99.90;;;;;;5072702;28;20111;-76
2024/01/04 04:35:36;;;;;;;121.43;115.00;;;4.00;99.90;;;;;;5067440;28;20032;-76
2024/01/04 04:38:02;;;;;;;155.07;146.83;;;4.00;99.90;;;;;;5070875;28;20044;-75
2024/01/04 04:40:27;;;;;;;131.77;124.60;;;4.00;99.90;;;;;;5058493;28;20070;-76
2024/01/04 04:42:53;;;;;;;77.57;73.70;;;3.90;99.90;;;;;;5078732;28;20074;-76
2024/01/04 04:45:19;;;;;;;118.07;111.60;;;3.90;99.90;;;;;;5063938;28;20097;-76
2024/01/04 04:47:44;;;;;;;163.87;155.17;;;3.90;99.90;;;;;;5073543;28;20127;-76
2024/01/04 04:50:10;;;;;;;177.97;168.20;;;3.90;99.90;;;;;;5079806;28;20443;-76
2024/01/04 04:52:36;;;;;;;80.90;77.03;;;3.80;99.90;;;;;;5071970;28;20050;-76
2024/01/04 04:55:02;;;;;;;153.80;145.40;;;3.80;99.90;;;;;;5082837;28;20097;-76
2024/01/04 04:57:27;;;;;;;78.87;75.00;;;3.70;99.90;;;;;;5060439;28;20126;-75
2024/01/04 04:59:53;;;;;;;128.13;121.20;;;3.60;99.90;;;;;;5076317;28;20068;-76
2024/01/04 05:02:19;;;;;;;135.97;128.70;;;3.50;99.90;;;;;;5054187;28;20044;-75
2024/01/04 05:04:45;;;;;;;93.93;88.67;;;3.40;99.90;;;;;;5054178;28;20059;-75
2024/01/04 05:07:11;;;;;;;90.72;86.22;;;3.40;99.90;;;;;;5082637;28;20040;-75
2024/01/04 05:09:37;;;;;;;73.47;69.73;;;3.40;99.90;;;;;;5084027;28;20486;-75
2024/01/04 05:12:02;;;;;;;69.07;65.53;;;3.40;99.90;;;;;;5056009;28;20036;-76
2024/01/04 05:14:28;;;;;;;128.53;121.33;;;3.40;99.90;;;;;;5058453;28;20036;-76
2024/01/04 05:16:54;;;;;;;51.93;49.47;;;3.40;99.90;;;;;;5071760;28;20052;-75
2024/01/04 05:19:20;;;;;;;96.78;91.40;;;3.40;99.90;;;;;;5073502;28;20516;-75
2024/01/04 05:21:46;;;;;;;91.13;86.33;;;3.40;99.90;;;;;;5074242;28;20033;-76
2024/01/04 05:24:11;;;;;;;128.70;121.77;;;3.40;99.90;;;;;;5078934;28;20084;-76
2024/01/04 05:26:37;;;;;;;58.73;55.70;;;3.40;99.90;;;;;;5073099;28;20033;-76
2024/01/04 05:29:03;;;;;;;130.03;123.00;;;3.40;99.90;;;;;;5074730;28;20810;-76
2024/01/04 05:31:28;;;;;;;105.87;100.00;;;3.40;99.90;;;;;;5055952;28;20043;-75
2024/01/04 05:33:54;;;;;;;72.97;69.37;;;3.50;99.90;;;;;;5070495;28;20497;-76
2024/01/04 05:36:20;;;;;;;85.40;81.03;;;3.50;99.90;;;;;;5075241;28;20053;-76
2024/01/04 05:38:46;;;;;;;91.72;86.90;;;3.50;99.90;;;;;;5075300;28;20059;-76
2024/01/04 05:41:12;;;;;;;74.97;71.47;;;3.50;99.90;;;;;;5069363;28;20052;-75
2024/01/04 05:43:37;;;;;;;139.97;132.57;;;3.50;99.90;;;;;;5073976;28;20076;-76
2024/01/04 05:46:06;;;;;;;64.33;61.00;;;3.50;99.90;;;;;;5064716;28;20035;-75
2024/01/04 05:48:32;;;;;;;107.20;101.28;;;3.60;99.90;;;;;;5072683;28;20075;-76
2024/01/04 05:50:58;;;;;;;71.35;67.90;;;3.60;99.90;;;;;;5070198;28;20044;-75
2024/01/04 05:53:24;;;;;;;123.03;116.43;;;3.60;99.90;;;;;;5056678;28;20036;-75
2024/01/04 05:55:50;;;;;;;65.33;62.03;;;3.60;99.90;;;;;;5067551;28;20497;-76
2024/01/04 05:58:15;;;;;;;170.33;160.87;;;3.60;99.90;;;;;;5073610;28;20111;-75
2024/01/04 06:00:41;;;;;;;79.90;75.93;;;3.60;99.90;;;;;;5066891;28;20056;-76
2024/01/04 06:03:07;;;;;;;78.13;74.27;;;3.70;99.90;;;;;;5073213;28;20044;-76
2024/01/04 06:05:32;;;;;;;119.80;113.53;;;3.70;99.90;;;;;;5057277;28;20098;-75
2024/01/04 06:07:58;;;;;;;105.67;100.37;;;3.70;99.90;;;;;;5068562;28;20418;-76
2024/01/04 06:10:24;;;;;;;95.47;90.70;;;3.70;99.90;;;;;;5080552;28;20062;-75
2024/01/04 06:12:49;;;;;;;101.47;96.03;;;3.70;99.90;;;;;;5060771;28;20684;-76
2024/01/04 06:15:18;;;;;;;116.30;109.93;;;3.70;99.90;;;;;;5056620;28;20393;-76
2024/01/04 06:17:44;;;;;;;106.03;100.35;;;3.70;99.90;;;;;;5070929;28;20147;-76
2024/01/04 06:20:10;;;;;;;112.13;106.47;;;3.70;99.90;;;;;;5070694;28;20123;-76
2024/01/04 06:22:35;;;;;;;125.67;118.50;;;3.70;99.90;;;;;;5079696;28;20040;-76
2024/01/04 06:25:01;;;;;;;182.17;171.90;;;3.70;99.90;;;;;;5075178;28;20124;-76
2024/01/04 06:27:27;;;;;;;91.57;86.77;;;3.70;99.90;;;;;;5053261;28;20051;-75
2024/01/04 06:29:53;;;;;;;90.68;85.95;;;3.70;99.90;;;;;;5071022;28;20047;-76
2024/01/04 06:32:19;;;;;;;72.70;69.03;;;3.70;99.90;;;;;;5079512;28;20079;-76
2024/01/04 06:34:44;;;;;;;83.47;79.40;;;3.70;99.90;;;;;;5075094;28;20706;-74
2024/01/04 06:37:10;;;;;;;73.27;69.50;;;3.80;99.90;;;;;;5070733;28;20036;-76
2024/01/04 06:39:36;;;;;;;66.57;63.10;;;3.80;99.90;;;;;;5055175;28;20036;-76
2024/01/04 06:42:04;;;;;;;81.30;77.03;;;3.80;99.90;;;;;;5079624;28;20396;-76
2024/01/04 06:44:31;;;;;;;86.53;81.95;;;3.80;99.90;;;;;;5062073;28;20036;-76
2024/01/04 06:46:57;;;;;;;157.70;148.68;;;3.80;99.90;;;;;;5071567;28;20040;-76
2024/01/04 06:49:22;;;;;;;98.03;93.03;;;3.80;99.90;;;;;;5061885;28;20050;-76
2024/01/04 06:51:48;;;;;;;82.93;78.57;;;3.80;99.90;;;;;;5070473;28;20047;-76
2024/01/04 06:54:14;;;;;;;102.53;96.80;;;3.80;99.90;;;;;;5076779;28;20529;-76
2024/01/04 06:56:39;;;;;;;114.37;108.13;;;3.80;99.90;;;;;;5075684;28;20132;-76
2024/01/04 06:59:05;;;;;;;74.67;70.97;;;3.80;99.90;;;;;;5078393;28;20041;-75
2024/01/04 07:01:31;;;;;;;91.73;87.03;;;3.80;99.90;;;;;;5076511;28;20060;-76
2024/01/04 07:03:56;;;;;;;122.73;116.17;;;3.80;99.90;;;;;;5079488;28;20043;-76
2024/01/04 07:06:22;;;;;;;86.33;82.10;;;3.80;99.90;;;;;;5054075;28;20045;-76
2024/01/04 07:08:48;;;;;;;106.70;101.20;;;3.80;99.90;;;;;;5071101;28;20044;-76
2024/01/04 07:11:14;;;;;;;78.63;74.87;;;3.80;99.90;;;;;;5067315;28;20035;-76
2024/01/04 07:13:39;;;;;;;80.43;76.30;;;3.80;99.90;;;;;;5077176;28;20036;-76
2024/01/04 07:16:05;;;;;;;96.17;91.17;;;3.80;99.90;;;;;;5073910;28;20032;-75
2024/01/04 07:18:31;;;;;;;99.57;94.60;;;3.80;99.90;;;;;;5064829;28;20063;-76
2024/01/04 07:20:57;;;;;;;96.17;91.03;;;3.80;99.90;;;;;;5081308;28;20086;-76
2024/01/04 07:23:23;;;;;;;95.57;90.67;;;3.80;99.90;;;;;;5055046;28;20182;-76
2024/01/04 07:25:48;;;;;;;107.87;102.07;;;3.80;99.90;;;;;;5053747;28;20047;-75
2024/01/04 07:28:14;;;;;;;83.47;78.70;;;3.80;99.90;;;;;;5060900;28;20045;-75
2024/01/04 07:30:40;;;;;;;72.57;68.90;;;3.70;99.90;;;;;;5078009;28;20036;-74
2024/01/04 07:33:05;;;;;;;84.90;80.47;;;3.70;99.90;;;;;;5060261;28;20545;-75
2024/01/04 07:35:32;;;;;;;75.00;71.23;;;3.70;99.90;;;;;;5072491;28;20208;-75
2024/01/04 07:37:59;;;;;;;124.05;117.45;;;3.70;99.90;;;;;;5060914;28;20501;-75
2024/01/04 07:40:25;;;;;;;87.95;83.35;;;3.70;99.90;;;;;;5078326;28;20393;-76
2024/01/04 07:42:51;;;;;;;69.73;66.27;;;3.70;99.90;;;;;;5070373;28;20044;-75
2024/01/04 07:45:16;;;;;;;78.65;74.80;;;3.60;99.90;;;;;;5074860;28;20516;-75
2024/01/04 07:47:42;;;;;;;80.87;76.43;;;3.60;99.90;;;;;;5074660;28;20044;-75
2024/01/04 07:50:08;;;;;;;103.40;97.87;;;3.60;99.90;;;;;;5074652;28;20052;-75
2024/01/04 07:52:34;;;;;;;78.20;74.23;;;3.60;99.90;;;;;;5071016;28;20063;-75
2024/01/04 07:55:00;;;;;;;75.63;71.60;;;3.60;99.90;;;;;;5076165;28;20032;-75
2024/01/04 07:57:25;;;;;;;59.37;55.93;;;3.60;99.90;;;;;;5070618;28;20028;-75
2024/01/04 07:59:51;;;;;;;58.80;55.77;;;3.60;99.90;;;;;;5075849;28;20101;-75
2024/01/04 08:02:17;;;;;;;63.05;59.47;;;3.60;99.90;;;;;;5079835;28;20129;-75
2024/01/04 08:04:43;;;;;;;67.13;63.50;;;3.60;99.90;;;;;;5079421;28;20090;-75
2024/01/04 08:07:09;;;;;;;58.47;55.60;;;3.60;99.90;;;;;;5070209;28;20055;-75
2024/01/04 08:09:34;;;;;;;66.70;63.33;;;3.60;99.90;;;;;;5069194;28;20110;-75
2024/01/04 08:12:01;;;;;;;76.47;72.50;;;3.60;99.90;;;;;;5081520;28;20028;-75
2024/01/04 08:14:27;;;;;;;82.50;78.35;;;3.70;99.90;;;;;;5076357;28;20040;-75
2024/01/04 08:16:52;;;;;;;71.90;68.30;;;3.70;99.90;;;;;;5080225;28;20070;-75
2024/01/04 08:19:18;;;;;;;82.07;77.60;;;3.70;99.90;;;;;;5076038;28;20490;-75
2024/01/04 08:21:44;;;;;;;72.00;68.10;;;3.70;99.90;;;;;;5074211;28;20124;-75
2024/01/04 08:24:09;;;;;;;127.67;120.77;;;3.60;99.90;;;;;;5077278;28;20109;-75
2024/01/04 08:26:41;;;;;;;106.80;101.07;;;3.70;99.90;;;;;;5062263;28;20501;-75
2024/01/04 08:29:07;;;;;;;84.82;80.13;;;3.70;99.90;;;;;;5053118;28;20390;-75
2024/01/04 08:31:33;;;;;;;65.07;61.20;;;3.70;99.90;;;;;;5074479;28;20055;-75
2024/01/04 08:33:59;;;;;;;105.67;100.10;;;3.70;99.90;;;;;;5077539;28;20278;-75
2024/01/04 08:36:25;;;;;;;153.45;145.05;;;3.70;99.90;;;;;;5076885;28;20032;-75
2024/01/04 08:38:51;;;;;;;68.87;65.33;;;3.70;99.90;;;;;;5079351;28;20029;-75
2024/01/04 08:41:16;;;;;;;120.93;114.80;;;3.70;99.90;;;;;;5072584;28;20045;-74
2024/01/04 08:43:42;;;;;;;98.63;93.33;;;3.70;99.90;;;;;;5054687;28;20513;-75
2024/01/04 08:46:08;;;;;;;65.27;62.10;;;3.80;99.90;;;;;;5074523;28;20036;-75
2024/01/04 08:48:34;;;;;;;67.68;63.85;;;3.80;99.90;;;;;;5069427;28;20048;-75
2024/01/04 08:51:00;;;;;;;80.50;76.37;;;3.80;99.90;;;;;;5078183;28;20036;-75
2024/01/04 08:53:25;;;;;;;72.40;68.60;;;3.80;99.90;;;;;;5057910;28;20102;-75
2024/01/04 08:55:51;;;;;;;78.57;74.67;;;3.80;99.90;;;;;;5075131;28;20532;-75
2024/01/04 08:58:17;;;;;;;72.87;68.93;;;3.80;99.90;;;;;;5069758;28;20116;-75
2024/01/04 09:00:43;;;;;;;80.63;76.23;;;3.90;99.90;;;;;;5071500;28;20569;-76
2024/01/04 09:03:08;;;;;;;77.53;73.57;;;3.90;99.90;;;;;;5068885;28;20051;-75
2024/01/04 09:05:34;;;;;;;84.87;80.50;;;3.90;99.90;;;;;;5054351;28;20127;-75
2024/01/04 09:08:00;;;;;;;84.27;79.87;;;4.00;99.90;;;;;;5070021;28;20598;-75
2024/01/04 09:10:26;;;;;;;80.23;75.90;;;4.00;99.90;;;;;;5066061;28;20028;-75
2024/01/04 09:12:51;;;;;;;79.07;74.33;;;4.00;99.90;;;;;;5070648;28;20090;-75
2024/01/04 09:15:18;;;;;;;105.47;100.00;;;4.00;99.90;;;;;;5068259;28;20044;-74
2024/01/04 09:17:43;;;;;;;103.72;98.47;;;4.10;99.90;;;;;;5051931;28;20043;-75
2024/01/04 09:20:10;;;;;;;92.93;88.10;;;4.10;99.90;;;;;;5076278;28;20040;-75
2024/01/04 09:22:36;;;;;;;93.68;89.13;;;4.20;99.90;;;;;;5059993;28;20044;-75
2024/01/04 09:25:03;;;;;;;143.23;135.43;;;4.20;99.90;;;;;;5061748;28;20607;-74
2024/01/04 09:27:29;;;;;;;106.80;101.07;;;4.20;99.90;;;;;;5053164;28;20044;-75
2024/01/04 09:29:55;;;;;;;87.07;82.40;;;4.20;99.90;;;;;;5077749;28;20040;-75
2024/01/04 09:32:21;;;;;;;113.23;107.37;;;4.20;99.90;;;;;;5068641;28;20297;-75
2024/01/04 09:34:46;;;;;;;138.23;130.47;;;4.30;99.90;;;;;;5073338;28;20032;-75
2024/01/04 09:37:13;;;;;;;110.70;104.60;;;4.30;99.90;;;;;;5058497;28;20036;-75
2024/01/04 09:39:40;;;;;;;139.10;131.73;;;4.30;99.90;;;;;;5054111;28;20417;-75
2024/01/04 09:42:09;;;;;;;88.32;84.00;;;4.30;99.90;;;;;;5050316;28;20032;-75
2024/01/04 09:44:38;;;;;;;137.18;129.70;;;4.30;99.90;;;;;;5067075;28;20036;-75
2024/01/04 09:47:09;;;;;;;89.25;84.95;;;4.40;99.90;;;;;;5050582;28;20037;-75
2024/01/04 09:49:39;;;;;;;85.22;81.05;;;4.30;99.90;;;;;;5073000;28;20072;-75
2024/01/04 09:52:05;;;;;;;131.23;124.13;;;4.40;99.90;;;;;;5050519;28;20051;-75
2024/01/04 09:54:32;;;;;;;118.03;111.45;;;4.40;99.90;;;;;;5069490;28;20035;-75
2024/01/04 09:56:59;;;;;;;63.22;59.72;;;4.40;99.90;;;;;;5050672;28;20071;-75
2024/01/04 09:59:26;;;;;;;51.20;48.60;;;4.40;99.90;;;;;;5070594;28;20085;-75
2024/01/04 10:01:56;;;;;;;113.75;107.32;;;4.40;99.90;;;;;;5078601;28;20044;-76
2024/01/04 10:04:24;;;;;;;55.08;52.35;;;4.50;99.90;;;;;;5080229;28;20082;-75
2024/01/04 10:06:53;;;;;;;118.43;111.93;;;4.50;99.90;;;;;;5057408;28;20038;-75
2024/01/04 10:09:25;;;;;;;59.20;56.22;;;4.50;99.90;;;;;;5072597;28;20047;-75
2024/01/04 10:11:56;;;;;;;63.58;60.17;;;4.50;99.90;;;;;;5080383;28;20065;-75
2024/01/04 10:14:23;;;;;;;69.30;65.93;;;4.50;99.90;;;;;;5060439;28;20436;-76
2024/01/04 10:16:50;;;;;;;89.20;84.50;;;4.60;99.90;;;;;;5071644;28;20044;-75
2024/01/04 10:19:16;;;;;;;84.93;80.60;;;4.60;99.90;;;;;;5084549;28;20086;-75
2024/01/04 10:21:41;;;;;;;84.30;80.10;;;4.60;99.90;;;;;;5078669;28;20059;-76
2024/01/04 10:24:10;;;;;;;101.20;95.63;;;4.70;99.90;;;;;;5077039;28;20552;-75
2024/01/04 10:26:35;;;;;;;84.32;80.18;;;4.70;99.90;;;;;;5077872;28;20565;-75
2024/01/04 10:29:01;;;;;;;79.13;75.10;;;4.70;99.90;;;;;;5080972;28;20036;-76
2024/01/04 10:31:27;;;;;;;158.00;149.00;;;4.80;99.90;;;;;;5072516;28;20047;-75
2024/01/04 10:34:00;;;;;;;82.28;78.05;;;4.80;99.90;;;;;;5062788;28;20047;-76
2024/01/04 10:36:29;;;;;;;104.10;98.93;;;4.80;99.90;;;;;;5077559;28;20065;-76
2024/01/04 10:38:58;;;;;;;78.15;74.32;;;4.80;99.90;;;;;;5078407;28;20382;-75
2024/01/04 10:41:28;;;;;;;168.02;158.75;;;4.80;99.90;;;;;;5079276;28;20044;-75
2024/01/04 10:44:03;;;;;;;88.32;83.85;;;4.80;99.90;;;;;;5069034;28;20505;-75
2024/01/04 10:46:29;;;;;;;114.55;108.32;;;4.80;99.90;;;;;;5058816;28;20094;-75
2024/01/04 10:48:55;;;;;;;127.53;120.43;;;4.80;99.90;;;;;;5070323;28;20036;-75
2024/01/04 10:51:20;;;;;;;155.43;146.93;;;4.70;99.90;;;;;;5054015;28;20048;-75
2024/01/04 10:53:47;;;;;;;135.70;128.03;;;4.80;99.90;;;;;;5071980;28;20051;-75
2024/01/04 10:56:14;;;;;;;102.47;97.13;;;4.70;99.90;;;;;;5067697;28;20070;-75
2024/01/04 10:58:40;;;;;;;145.95;137.50;;;4.80;99.90;;;;;;5078314;28;20551;-76
2024/01/04 11:01:06;;;;;;;128.30;121.18;;;4.80;99.90;;;;;;5076554;28;20155;-75
2024/01/04 11:03:32;;;;;;;107.23;101.73;;;4.80;99.90;;;;;;5072040;28;20236;-75
2024/01/04 11:06:07;;;;;;;72.60;68.82;;;4.80;99.90;;;;;;5062091;28;20105;-75
2024/01/04 11:08:35;;;;;;;113.80;107.72;;;4.80;99.90;;;;;;5064323;28;20040;-75
2024/01/04 11:11:00;;;;;;;149.40;141.20;;;4.90;99.90;;;;;;5081444;28;20490;-76
2024/01/04 11:13:26;;;;;;;104.00;98.77;;;4.90;99.90;;;;;;5066594;28;20045;-76
2024/01/04 11:15:57;;;;;;;84.40;80.27;;;4.90;99.90;;;;;;5071510;28;20434;-76
2024/01/04 11:18:40;;;;;;;142.77;134.90;;;4.90;99.90;;;;;;5058881;28;20052;-75
2024/01/04 11:21:33;;;;;;;91.15;86.57;;;4.90;99.90;;;;;;5072626;28;20039;-75
2024/01/04 11:24:05;;;;;;;113.80;107.88;;;4.90;99.90;;;;;;5066347;28;20036;-75
2024/01/04 11:26:56;;;;;;;170.68;160.43;;;4.90;99.90;;;;;;5073577;28;20047;-75
2024/01/04 11:29:23;;;;;;;79.35;75.18;;;4.80;99.90;;;;;;5079573;28;20616;-75
2024/01/04 11:31:49;;;;;;;83.22;78.97;;;4.80;99.90;;;;;;5076160;28;20076;-75
2024/01/04 11:34:15;;;;;;;80.82;76.75;;;4.80;99.90;;;;;;5065165;28;20383;-75
2024/01/04 11:36:41;;;;;;;107.18;101.57;;;4.70;99.90;;;;;;5072066;28;20047;-75
2024/01/04 11:39:07;;;;;;;144.93;137.00;;;4.70;99.90;;;;;;5060891;28;20482;-76
2024/01/04 11:41:34;;;;;;;148.60;140.23;;;4.70;99.90;;;;;;5081377;28;20036;-75
2024/01/04 11:44:02;;;;;;;106.07;100.10;;;4.70;99.90;;;;;;5061673;28;20036;-76
2024/01/04 11:46:28;;;;;;;84.38;80.13;;;4.80;99.90;;;;;;5084747;28;20035;-75
2024/01/04 11:49:03;;;;;;;92.43;87.53;;;4.80;99.90;;;;;;5071034;28;20055;-75
2024/01/04 11:51:38;;;;;;;91.70;87.00;;;4.90;99.90;;;;;;5087298;28;20097;-75
2024/01/04 11:54:05;;;;;;;87.50;82.95;;;5.00;99.90;;;;;;5083336;28;20040;-75
2024/01/04 11:56:31;;;;;;;111.97;105.90;;;5.10;99.90;;;;;;5072667;28;20549;-75
2024/01/04 11:59:30;;;;;;;102.37;97.10;;;5.10;99.90;;;;;;5082071;28;20058;-75
2024/01/04 12:01:57;;;;;;;122.07;115.43;;;5.20;99.90;;;;;;5064104;28;20344;-76
2024/01/04 12:04:22;;;;;;;157.50;148.95;;;5.30;99.90;;;;;;5081130;28;20036;-76
2024/01/04 12:06:48;;;;;;;103.93;98.47;;;5.30;99.90;;;;;;5083430;28;20047;-76
2024/01/04 12:09:17;;;;;;;110.17;104.70;;;5.30;99.90;;;;;;5057790;28;20090;-77
2024/01/04 12:11:55;;;;;;;106.50;101.10;;;5.40;99.90;;;;;;5064073;28;20362;-76
2024/01/04 12:14:22;;;;;;;161.35;152.75;;;5.40;99.90;;;;;;5079421;28;20508;-77
2024/01/04 12:16:48;;;;;;;111.30;105.50;;;5.30;99.90;;;;;;5055391;28;20072;-76
2024/01/04 12:19:13;;;;;;;159.50;150.87;;;5.30;99.90;;;;;;5073074;28;20076;-76
2024/01/04 12:21:39;;;;;;;116.87;110.80;;;5.30;99.90;;;;;;5085318;28;20077;-77